Time;durP1;ratioP1;P1;durP2;ratioP2;P2;SDS_P1;SDS_P2;PMS_P1;PMS_P2;Temp;Humidity;BMP_temperature;BMP_pressure;BME280_temperature;BME280_humidity;BME280_pressure;Samples;Min_cycle;Max_cycle;Signal;HPM_P1;HPM_P2
2021/06/19 00:01:31;;;;;;;6.47;5.87;;;24.90;31.50;;;;;;4976812;28;20170;-81
2021/06/19 00:03:57;;;;;;;9.30;6.50;;;24.90;32.50;;;;;;4976387;28;20186;-81
2021/06/19 00:06:22;;;;;;;8.93;6.17;;;24.90;31.50;;;;;;4976087;28;20199;-80
2021/06/19 00:08:48;;;;;;;7.30;5.70;;;24.90;31.30;;;;;;4977415;28;20159;-81
2021/06/19 00:11:14;;;;;;;7.57;5.93;;;24.90;31.70;;;;;;4975750;28;20579;-81
2021/06/19 00:13:39;;;;;;;6.40;5.80;;;24.90;31.70;;;;;;4977299;28;20666;-81
2021/06/19 00:16:06;;;;;;;8.43;5.83;;;24.90;32.20;;;;;;4976983;28;20171;-81
2021/06/19 00:18:32;;;;;;;7.17;6.47;;;24.90;32.20;;;;;;4976957;28;20186;-81
2021/06/19 00:20:58;;;;;;;8.90;5.80;;;24.90;32.30;;;;;;4974235;28;20414;-80
2021/06/19 00:23:24;;;;;;;8.70;5.77;;;24.90;32.20;;;;;;4974117;28;20414;-80
2021/06/19 00:25:50;;;;;;;7.23;5.93;;;24.90;32.20;;;;;;4973297;28;20747;-80
2021/06/19 00:28:15;;;;;;;7.43;6.30;;;24.80;32.10;;;;;;4973811;28;20254;-80
2021/06/19 00:30:41;;;;;;;9.13;6.30;;;24.90;32.30;;;;;;4973910;28;20167;-80
2021/06/19 00:33:06;;;;;;;8.53;6.10;;;24.90;32.50;;;;;;4971972;28;20175;-80
2021/06/19 00:35:32;;;;;;;10.17;6.97;;;24.90;32.70;;;;;;4971704;28;20265;-79
2021/06/19 00:37:58;;;;;;;10.60;6.13;;;24.90;32.70;;;;;;4973590;28;20210;-80
2021/06/19 00:40:24;;;;;;;9.47;6.80;;;24.90;32.90;;;;;;4973682;28;20210;-78
2021/06/19 00:42:58;;;;;;;9.13;5.77;;;24.90;33.10;;;;;;4973467;28;20594;-80
2021/06/19 00:45:25;;;;;;;11.17;7.00;;;24.90;33.10;;;;;;4974161;28;20202;-79
2021/06/19 00:47:52;;;;;;;7.60;6.87;;;24.90;33.30;;;;;;4971968;28;20418;-81
2021/06/19 00:50:17;;;;;;;10.87;6.63;;;24.90;34.20;;;;;;4973180;28;20937;-79
2021/06/19 00:52:43;;;;;;;6.40;5.90;;;24.90;33.90;;;;;;4971432;28;20415;-80
2021/06/19 00:55:09;;;;;;;7.33;6.23;;;24.90;34.10;;;;;;4972311;28;20191;-80
2021/06/19 00:57:38;;;;;;;11.10;6.80;;;24.90;34.20;;;;;;4971305;28;20183;-80
2021/06/19 01:00:06;;;;;;;9.27;6.40;;;24.80;34.10;;;;;;4973913;28;20453;-80
2021/06/19 01:02:32;;;;;;;8.47;7.40;;;24.90;34.20;;;;;;4972593;28;20422;-81
2021/06/19 01:04:58;;;;;;;7.03;6.33;;;24.80;34.10;;;;;;4976185;28;20906;-80
2021/06/19 01:07:23;;;;;;;6.53;5.87;;;24.80;34.10;;;;;;4975721;28;20251;-81
2021/06/19 01:09:49;;;;;;;8.50;6.57;;;24.80;34.10;;;;;;4975151;28;20207;-81
2021/06/19 01:12:23;;;;;;;7.80;6.07;;;24.80;34.10;;;;;;4974586;28;20185;-79
2021/06/19 01:14:53;;;;;;;9.50;7.10;;;24.80;34.10;;;;;;4974793;28;20206;-81
2021/06/19 01:17:19;;;;;;;7.40;6.70;;;24.80;34.60;;;;;;4975327;28;20462;-81
2021/06/19 01:19:46;;;;;;;12.20;7.00;;;24.80;35.40;;;;;;4975825;28;20593;-80
2021/06/19 01:22:12;;;;;;;9.73;6.50;;;24.80;34.80;;;;;;4974259;28;20940;-81
2021/06/19 01:24:37;;;;;;;13.67;7.37;;;24.80;34.60;;;;;;4974819;28;20426;-81
2021/06/19 01:27:03;;;;;;;9.87;5.90;;;24.80;34.60;;;;;;4975598;28;20206;-80
2021/06/19 01:29:29;;;;;;;6.80;6.13;;;24.80;34.60;;;;;;4974270;28;20213;-81
2021/06/19 01:31:55;;;;;;;7.33;6.63;;;24.80;34.40;;;;;;4975173;28;20414;-81
2021/06/19 01:34:20;;;;;;;6.50;6.00;;;24.80;34.60;;;;;;4975788;28;20250;-81
2021/06/19 01:36:46;;;;;;;7.43;5.93;;;24.80;34.50;;;;;;4975344;28;20557;-80
2021/06/19 01:39:11;;;;;;;8.80;6.23;;;24.80;34.70;;;;;;4975594;28;20206;-81
2021/06/19 01:41:37;;;;;;;9.47;6.73;;;24.80;34.90;;;;;;4975777;28;20174;-80
2021/06/19 01:44:05;;;;;;;7.67;6.43;;;24.80;35.10;;;;;;4975737;28;20261;-81
2021/06/19 01:46:31;;;;;;;7.97;6.50;;;24.70;35.40;;;;;;4975185;28;20218;-81
2021/06/19 01:48:57;;;;;;;10.83;7.20;;;24.70;35.20;;;;;;4975620;28;20417;-81
2021/06/19 01:51:23;;;;;;;7.60;6.20;;;24.80;35.20;;;;;;4975815;28;20553;-81
2021/06/19 01:53:49;;;;;;;7.00;6.40;;;24.80;35.20;;;;;;4974075;28;20283;-81
2021/06/19 01:56:15;;;;;;;10.00;7.40;;;24.80;35.40;;;;;;4976127;28;20179;-81
2021/06/19 01:58:41;;;;;;;8.67;6.67;;;24.70;35.20;;;;;;4974055;28;20423;-80
2021/06/19 02:01:10;;;;;;;7.60;6.80;;;24.70;35.10;;;;;;4974976;28;20414;-80
2021/06/19 02:03:39;;;;;;;8.43;6.70;;;24.70;35.10;;;;;;4975514;28;20793;-80
2021/06/19 02:06:06;;;;;;;9.67;6.73;;;24.70;35.50;;;;;;4973331;28;20866;-80
2021/06/19 02:08:32;;;;;;;6.90;6.30;;;24.80;35.40;;;;;;4975047;28;20414;-81
2021/06/19 02:10:58;;;;;;;9.20;7.10;;;24.70;35.80;;;;;;4975561;28;20409;-81
2021/06/19 02:13:25;;;;;;;10.70;6.57;;;24.70;35.50;;;;;;4975613;28;20481;-81
2021/06/19 02:15:51;;;;;;;6.90;6.37;;;24.70;35.40;;;;;;4973304;28;20920;-81
2021/06/19 02:18:17;;;;;;;11.50;7.83;;;24.70;35.70;;;;;;4975328;28;20434;-81
2021/06/19 02:20:44;;;;;;;6.97;6.30;;;24.70;35.70;;;;;;4974583;28;20414;-80
2021/06/19 02:23:10;;;;;;;9.03;6.90;;;24.70;35.60;;;;;;4974150;28;20418;-81
2021/06/19 02:25:36;;;;;;;8.23;7.40;;;24.70;35.70;;;;;;4973403;28;20472;-81
2021/06/19 02:28:10;;;;;;;8.17;6.30;;;24.70;36.20;;;;;;4975077;28;20785;-80
2021/06/19 02:30:41;;;;;;;7.67;6.50;;;24.70;36.90;;;;;;4974725;28;20230;-81
2021/06/19 02:33:08;;;;;;;7.93;7.13;;;24.70;36.40;;;;;;4974607;28;20501;-80
2021/06/19 02:35:37;;;;;;;8.53;6.90;;;24.70;36.10;;;;;;4974628;28;20426;-80
2021/06/19 02:38:04;;;;;;;6.83;6.13;;;24.70;36.20;;;;;;4974626;28;20414;-81
2021/06/19 02:40:31;;;;;;;7.60;7.10;;;24.70;36.20;;;;;;4973888;28;20417;-79
2021/06/19 02:42:57;;;;;;;7.53;6.70;;;24.70;36.10;;;;;;4974907;28;20797;-80
2021/06/19 02:45:23;;;;;;;6.73;6.20;;;24.70;36.20;;;;;;4976654;28;20501;-81
2021/06/19 02:47:52;;;;;;;8.20;7.37;;;24.70;36.20;;;;;;4978163;28;20474;-81
2021/06/19 02:50:20;;;;;;;7.57;6.87;;;24.70;37.00;;;;;;4976267;28;20175;-81
2021/06/19 02:52:46;;;;;;;7.97;6.63;;;24.70;36.30;;;;;;4976819;28;20819;-79
2021/06/19 02:55:19;;;;;;;8.50;7.13;;;24.70;36.50;;;;;;4976972;28;20426;-79
2021/06/19 02:57:46;;;;;;;8.57;6.23;;;24.70;36.50;;;;;;4976814;28;20557;-80
2021/06/19 03:00:13;;;;;;;6.90;6.43;;;24.70;36.40;;;;;;4975984;28;20417;-81
2021/06/19 03:02:39;;;;;;;9.47;6.30;;;24.70;36.40;;;;;;4977116;28;20417;-80
2021/06/19 03:05:11;;;;;;;7.37;6.67;;;24.70;36.30;;;;;;4976689;28;20476;-81
2021/06/19 03:07:37;;;;;;;6.93;6.43;;;24.70;36.50;;;;;;4976102;28;20418;-81
2021/06/19 03:10:08;;;;;;;7.10;6.40;;;24.70;36.70;;;;;;4976968;28;20425;-80
2021/06/19 03:12:35;;;;;;;6.87;6.17;;;24.70;36.70;;;;;;4976280;28;20174;-81
2021/06/19 03:15:01;;;;;;;7.50;6.70;;;24.70;36.90;;;;;;4975770;28;20437;-81
2021/06/19 03:17:26;;;;;;;9.00;6.90;;;24.70;37.00;;;;;;4976684;28;20474;-81
2021/06/19 03:19:52;;;;;;;7.40;6.70;;;24.70;37.40;;;;;;4977144;28;20421;-80
2021/06/19 03:22:18;;;;;;;6.60;5.97;;;24.70;37.10;;;;;;4976995;28;20600;-80
2021/06/19 03:24:44;;;;;;;11.40;7.30;;;24.70;37.00;;;;;;4976009;28;20315;-79
2021/06/19 03:27:12;;;;;;;7.27;6.50;;;24.60;37.50;;;;;;4976463;28;20414;-81
2021/06/19 03:29:38;;;;;;;7.63;6.83;;;24.60;37.10;;;;;;4976225;28;20418;-79
2021/06/19 03:32:05;;;;;;;11.10;6.47;;;24.70;37.20;;;;;;4976141;28;20533;-81
2021/06/19 03:34:31;;;;;;;6.97;6.27;;;24.60;37.10;;;;;;4975710;28;20202;-81
2021/06/19 03:37:00;;;;;;;7.70;7.00;;;24.70;37.00;;;;;;4973919;28;20957;-80
2021/06/19 03:39:33;;;;;;;9.47;7.53;;;24.70;37.00;;;;;;4975891;28;20758;-81
2021/06/19 03:41:59;;;;;;;8.17;7.47;;;24.60;37.30;;;;;;4975405;28;20437;-81
2021/06/19 03:44:26;;;;;;;7.73;6.93;;;24.60;37.40;;;;;;4975203;28;20441;-81
2021/06/19 03:46:52;;;;;;;7.97;7.23;;;24.60;37.30;;;;;;4975103;28;20466;-80
2021/06/19 03:49:18;;;;;;;6.97;6.40;;;24.60;37.20;;;;;;4975466;28;20753;-80
2021/06/19 03:51:45;;;;;;;7.73;7.03;;;24.60;37.10;;;;;;4974065;28;20418;-79
2021/06/19 03:54:11;;;;;;;9.00;8.07;;;24.60;37.10;;;;;;4974453;28;20274;-79
2021/06/19 03:56:36;;;;;;;11.80;8.10;;;24.60;37.70;;;;;;4974259;28;21000;-79
2021/06/19 03:59:02;;;;;;;11.63;8.40;;;24.60;37.60;;;;;;4974810;28;20262;-80
2021/06/19 04:01:28;;;;;;;9.03;7.43;;;24.60;37.80;;;;;;4974475;28;20669;-80
2021/06/19 04:03:54;;;;;;;7.43;6.93;;;24.60;37.60;;;;;;4974256;28;20606;-80
2021/06/19 04:06:19;;;;;;;9.40;7.47;;;24.60;37.60;;;;;;4972490;28;20477;-79
2021/06/19 04:08:45;;;;;;;8.93;8.13;;;24.60;37.50;;;;;;4973861;28;20646;-79
2021/06/19 04:11:13;;;;;;;9.30;8.37;;;24.60;37.70;;;;;;4973705;28;20553;-79
2021/06/19 04:13:39;;;;;;;7.23;6.70;;;24.60;37.70;;;;;;4973277;28;20209;-79
2021/06/19 04:16:05;;;;;;;8.53;7.77;;;24.60;37.60;;;;;;4972656;28;20420;-79
2021/06/19 04:18:31;;;;;;;8.07;7.33;;;24.60;37.70;;;;;;4973048;28;20816;-79
2021/06/19 04:20:56;;;;;;;13.50;7.83;;;24.60;37.50;;;;;;4973047;28;20185;-80
2021/06/19 04:23:22;;;;;;;12.47;6.97;;;24.60;37.90;;;;;;4971737;28;20671;-80
2021/06/19 04:25:47;;;;;;;7.60;7.10;;;24.60;38.40;;;;;;4972821;28;20202;-80
2021/06/19 04:28:13;;;;;;;7.97;7.20;;;24.60;37.70;;;;;;4976939;28;20572;-80
2021/06/19 04:30:38;;;;;;;8.07;7.23;;;24.60;37.60;;;;;;4977222;28;20238;-79
2021/06/19 04:33:04;;;;;;;8.07;7.20;;;24.60;38.00;;;;;;4976020;28;20654;-80
2021/06/19 04:35:31;;;;;;;8.70;7.87;;;24.60;37.80;;;;;;4976795;28;20206;-80
2021/06/19 04:37:57;;;;;;;8.83;7.60;;;24.60;38.00;;;;;;4975276;28;20202;-80
2021/06/19 04:42:58;;;;;;;8.83;8.03;;;24.60;37.80;;;;;;4976689;28;20186;-81
2021/06/19 04:45:25;;;;;;;9.03;8.17;;;24.60;37.90;;;;;;4976111;28;20786;-79
2021/06/19 04:47:51;;;;;;;8.60;7.20;;;24.60;38.10;;;;;;4974965;28;20453;-77
2021/06/19 04:50:16;;;;;;;7.47;6.90;;;24.60;38.20;;;;;;4972728;28;21003;-78
2021/06/19 04:53:25;;;;;;;8.00;7.40;;;24.60;38.00;;;;;;4975415;28;20546;-80
2021/06/19 04:55:51;;;;;;;10.90;7.47;;;24.60;38.00;;;;;;4976412;28;20178;-79
2021/06/19 04:58:17;;;;;;;8.33;7.53;;;24.60;38.00;;;;;;4973364;28;20447;-77
2021/06/19 05:00:42;;;;;;;9.87;9.03;;;24.60;38.10;;;;;;4974814;28;20414;-78
2021/06/19 05:03:08;;;;;;;9.90;8.33;;;24.60;38.10;;;;;;4972757;28;20186;-80
2021/06/19 05:05:34;;;;;;;8.03;7.47;;;24.60;38.20;;;;;;4975571;28;20201;-79
2021/06/19 05:08:00;;;;;;;9.03;8.27;;;24.60;38.00;;;;;;4975702;28;20406;-79
2021/06/19 05:11:04;;;;;;;11.90;8.37;;;24.70;38.20;;;;;;4976656;28;20421;-79
2021/06/19 05:13:29;;;;;;;8.67;7.77;;;24.60;39.00;;;;;;4976761;28;20681;-80
2021/06/19 05:15:55;;;;;;;7.90;7.30;;;24.60;38.30;;;;;;4975059;28;20440;-78
2021/06/19 05:18:21;;;;;;;8.80;7.90;;;24.60;38.40;;;;;;4976978;28;20195;-79
2021/06/19 05:20:47;;;;;;;9.60;8.70;;;24.70;38.30;;;;;;4974066;28;20174;-78
2021/06/19 05:23:12;;;;;;;8.97;8.07;;;24.60;38.40;;;;;;4974016;28;20435;-77
2021/06/19 05:25:38;;;;;;;8.97;8.10;;;24.70;38.40;;;;;;4976853;28;20988;-78
2021/06/19 05:28:04;;;;;;;9.67;8.67;;;24.70;38.50;;;;;;4974619;28;20244;-79
2021/06/19 05:30:32;;;;;;;9.17;8.27;;;24.70;38.80;;;;;;4975709;28;20185;-79
2021/06/19 05:32:59;;;;;;;8.17;7.43;;;24.70;38.80;;;;;;4974809;28;20410;-79
2021/06/19 05:35:31;;;;;;;9.57;8.67;;;24.70;38.90;;;;;;4974913;28;20369;-79
2021/06/19 05:37:56;;;;;;;9.00;8.23;;;24.60;39.10;;;;;;4975776;28;20425;-79
2021/06/19 05:40:25;;;;;;;9.17;8.30;;;24.70;38.90;;;;;;4976273;28;20418;-80
2021/06/19 05:42:55;;;;;;;9.43;8.33;;;24.70;38.80;;;;;;4975477;28;20561;-81
2021/06/19 05:45:21;;;;;;;7.97;7.27;;;24.70;38.80;;;;;;4973935;28;21024;-78
2021/06/19 05:47:47;;;;;;;9.40;8.50;;;24.70;38.90;;;;;;4973845;28;20489;-78
2021/06/19 05:50:12;;;;;;;9.20;8.27;;;24.70;39.00;;;;;;4971099;28;20550;-79
2021/06/19 05:52:38;;;;;;;9.80;8.83;;;24.70;39.70;;;;;;4979143;28;20232;-78
2021/06/19 05:55:05;;;;;;;9.97;9.17;;;24.70;39.30;;;;;;4974856;28;20246;-78
2021/06/19 05:57:31;;;;;;;9.60;8.60;;;24.70;39.30;;;;;;4974700;28;20187;-79
2021/06/19 05:59:56;;;;;;;10.20;9.23;;;24.70;40.10;;;;;;4975467;28;20434;-79
2021/06/19 06:02:22;;;;;;;9.93;9.03;;;24.70;40.20;;;;;;4976616;28;20414;-78
2021/06/19 06:04:47;;;;;;;9.50;8.80;;;24.70;40.40;;;;;;4990667;28;20237;-78
2021/06/19 06:07:13;;;;;;;9.50;8.80;;;24.60;40.20;;;;;;4992300;28;20167;-78
2021/06/19 06:09:39;;;;;;;10.03;9.13;;;24.70;40.10;;;;;;4994174;28;20174;-80
2021/06/19 06:12:07;;;;;;;10.07;9.20;;;24.70;40.00;;;;;;4995686;28;20166;-80
2021/06/19 06:14:32;;;;;;;10.00;9.10;;;24.70;39.90;;;;;;4994003;28;20190;-78
2021/06/19 06:16:58;;;;;;;10.20;9.30;;;24.70;40.80;;;;;;4993213;28;20448;-79
2021/06/19 06:19:24;;;;;;;10.80;9.23;;;24.70;40.40;;;;;;4996386;28;20212;-78
2021/06/19 06:21:50;;;;;;;10.07;8.90;;;24.70;40.50;;;;;;4997537;28;21028;-78
2021/06/19 06:24:16;;;;;;;11.33;9.87;;;24.70;40.60;;;;;;4997272;28;20205;-77
2021/06/19 06:26:42;;;;;;;10.70;9.60;;;24.70;40.70;;;;;;4997253;28;20204;-79
2021/06/19 06:29:07;;;;;;;9.73;9.03;;;24.70;40.60;;;;;;4997720;28;20425;-79
2021/06/19 06:31:34;;;;;;;13.10;9.67;;;24.70;40.50;;;;;;4993134;28;20666;-79
2021/06/19 06:33:59;;;;;;;10.43;9.63;;;24.60;41.00;;;;;;4978959;28;20194;-79
2021/06/19 06:36:25;;;;;;;10.70;9.60;;;24.70;41.10;;;;;;4978834;28;20414;-84
2021/06/19 06:38:51;;;;;;;9.83;9.03;;;24.70;40.60;;;;;;4978891;28;20690;-80
2021/06/19 06:41:16;;;;;;;10.80;9.80;;;24.70;40.30;;;;;;4978965;28;20183;-80
2021/06/19 06:43:42;;;;;;;11.13;9.40;;;24.70;40.20;;;;;;4977252;28;20226;-79
2021/06/19 06:46:07;;;;;;;10.93;9.77;;;24.70;40.00;;;;;;4977322;28;20280;-80
2021/06/19 06:48:33;;;;;;;10.77;9.73;;;24.70;39.90;;;;;;4978281;28;20175;-79
2021/06/19 06:50:59;;;;;;;9.63;8.70;;;24.80;40.00;;;;;;4978751;28;20247;-80
2021/06/19 06:53:24;;;;;;;10.73;9.80;;;24.80;40.20;;;;;;4978837;28;20175;-80
2021/06/19 06:55:50;;;;;;;11.17;10.23;;;24.80;40.10;;;;;;4976579;28;20190;-79
2021/06/19 06:58:15;;;;;;;12.17;8.67;;;24.80;40.00;;;;;;4976486;28;20270;-79
2021/06/19 07:00:41;;;;;;;9.80;8.90;;;24.80;40.60;;;;;;4977111;28;20174;-78
2021/06/19 07:03:07;;;;;;;13.20;8.97;;;24.80;40.40;;;;;;4981800;28;20190;-78
2021/06/19 07:05:33;;;;;;;10.03;9.10;;;24.80;40.40;;;;;;4987468;28;20198;-78
2021/06/19 07:07:59;;;;;;;9.63;8.83;;;24.80;40.80;;;;;;4985773;28;20178;-78
2021/06/19 07:10:24;;;;;;;11.60;8.47;;;24.80;40.10;;;;;;4991193;28;20417;-79
2021/06/19 07:12:55;;;;;;;10.27;8.97;;;24.80;40.00;;;;;;4997230;28;20205;-80
2021/06/19 07:15:34;;;;;;;9.30;8.50;;;24.80;40.10;;;;;;4994380;28;20209;-80
2021/06/19 07:18:00;;;;;;;9.43;8.67;;;24.80;39.80;;;;;;4995596;28;20433;-78
2021/06/19 07:20:25;;;;;;;8.10;7.33;;;24.80;39.60;;;;;;4995097;28;20420;-78
2021/06/19 07:22:51;;;;;;;9.80;8.80;;;24.80;39.50;;;;;;4994860;28;20701;-78
2021/06/19 07:25:17;;;;;;;10.33;9.00;;;24.80;40.50;;;;;;4987849;28;20248;-77
2021/06/19 07:27:53;;;;;;;10.60;8.60;;;24.80;40.10;;;;;;4975880;28;20167;-82
2021/06/19 07:30:22;;;;;;;9.20;8.40;;;24.80;40.40;;;;;;4974660;28;20437;-78
2021/06/19 07:32:48;;;;;;;9.70;8.80;;;24.90;40.20;;;;;;4974870;28;20419;-78
2021/06/19 07:35:13;;;;;;;10.57;9.77;;;24.90;40.80;;;;;;4973817;28;21084;-78
2021/06/19 07:37:39;;;;;;;10.83;9.93;;;24.90;40.30;;;;;;4974014;28;20932;-77
2021/06/19 07:40:06;;;;;;;9.80;9.00;;;24.90;40.70;;;;;;4973740;28;20551;-79
2021/06/19 07:42:32;;;;;;;10.60;9.67;;;24.90;40.40;;;;;;4974245;28;20181;-78
2021/06/19 07:45:10;;;;;;;11.40;9.93;;;24.90;40.20;;;;;;4974031;28;20426;-80
2021/06/19 07:47:39;;;;;;;10.37;9.57;;;24.90;40.00;;;;;;4973163;28;20786;-79
2021/06/19 07:50:11;;;;;;;10.63;9.83;;;24.90;40.30;;;;;;4973056;28;20418;-81
2021/06/19 07:52:59;;;;;;;10.73;9.73;;;24.90;40.10;;;;;;4974114;28;20418;-80
2021/06/19 07:58:51;;;;;;;9.57;8.87;;;24.90;40.30;;;;;;4971642;28;21003;-79
2021/06/19 08:01:18;;;;;;;10.00;9.13;;;24.90;40.00;;;;;;4977529;28;20531;-82
2021/06/19 08:07:10;;;;;;;11.73;10.63;;;24.90;40.00;;;;;;5029130;28;21406;-82
2021/06/19 08:09:36;;;;;;;9.60;8.90;;;24.90;39.90;;;;;;5002496;28;20419;-79
2021/06/19 08:12:02;;;;;;;9.67;8.90;;;24.90;40.10;;;;;;5018798;28;20552;-82
2021/06/19 08:14:28;;;;;;;10.07;9.13;;;24.90;39.80;;;;;;5036081;28;20188;-80
2021/06/19 08:17:24;;;;;;;13.60;10.30;;;24.90;39.80;;;;;;5017412;28;20783;-82
2021/06/19 08:19:51;;;;;;;9.80;9.10;;;25.00;39.80;;;;;;5017356;28;20196;-79
2021/06/19 08:22:23;;;;;;;9.90;9.20;;;25.00;39.60;;;;;;5018278;28;20411;-80
2021/06/19 08:24:54;;;;;;;9.40;8.70;;;25.00;39.60;;;;;;5018387;28;20441;-80
2021/06/19 08:27:26;;;;;;;11.13;10.03;;;25.00;39.50;;;;;;5050251;28;20450;-82
2021/06/19 08:29:54;;;;;;;12.73;10.40;;;25.00;39.50;;;;;;5037758;28;20407;-82
2021/06/19 08:32:21;;;;;;;12.07;10.40;;;25.00;39.80;;;;;;5003687;28;20426;-81
2021/06/19 08:34:47;;;;;;;16.93;10.83;;;25.00;39.50;;;;;;5036180;28;20475;-79
2021/06/19 08:37:13;;;;;;;11.80;10.57;;;25.00;39.70;;;;;;5019579;28;20408;-79
2021/06/19 08:39:39;;;;;;;13.10;11.17;;;25.00;39.50;;;;;;5037123;28;20453;-81
2021/06/19 08:42:05;;;;;;;12.63;11.37;;;25.00;39.60;;;;;;5036086;28;20165;-80
2021/06/19 08:44:31;;;;;;;13.13;11.27;;;25.00;39.50;;;;;;5017488;28;20192;-81
2021/06/19 08:46:58;;;;;;;12.40;11.03;;;25.00;39.40;;;;;;5028066;28;20516;-83
2021/06/19 08:50:08;;;;;;;12.77;11.47;;;25.00;39.50;;;;;;5036791;28;20169;-84
2021/06/19 08:53:01;;;;;;;19.70;11.90;;;25.00;39.40;;;;;;5036369;28;20423;-81
2021/06/19 08:56:33;;;;;;;12.93;11.27;;;25.00;40.20;;;;;;4936851;29;20423;-84
2021/06/19 08:59:57;;;;;;;15.03;11.10;;;25.00;39.50;;;;;;4916652;29;20428;-81
2021/06/19 09:03:07;;;;;;;12.00;10.93;;;25.00;39.80;;;;;;4937394;29;20443;-84
2021/06/19 09:05:46;;;;;;;13.00;11.80;;;25.00;39.50;;;;;;4903498;29;21520;-84
2021/06/19 09:09:09;;;;;;;12.00;10.80;;;25.00;39.60;;;;;;4919222;29;20990;-83
2021/06/19 09:12:44;;;;;;;14.43;11.03;;;25.10;39.60;;;;;;4861257;29;20459;-83
2021/06/19 09:16:13;;;;;;;12.63;11.40;;;25.10;39.90;;;;;;4936761;29;20471;-82
2021/06/19 09:19:43;;;;;;;12.60;10.73;;;25.20;40.80;;;;;;4936455;29;21259;-82
2021/06/19 09:22:22;;;;;;;11.93;11.03;;;25.20;40.10;;;;;;4937570;29;20452;-81
2021/06/19 09:24:56;;;;;;;12.67;11.63;;;25.20;39.90;;;;;;4938660;29;20457;-81
2021/06/19 09:27:40;;;;;;;12.07;11.17;;;25.20;40.10;;;;;;4938383;29;20424;-82
2021/06/19 09:30:44;;;;;;;15.60;11.33;;;25.30;40.10;;;;;;4938121;29;20427;-81
2021/06/19 09:33:12;;;;;;;13.33;12.07;;;25.30;40.10;;;;;;4919465;29;20523;-82
2021/06/19 09:35:43;;;;;;;11.87;10.87;;;25.20;39.90;;;;;;4912596;29;20433;-82
2021/06/19 09:38:14;;;;;;;13.10;12.00;;;25.20;40.00;;;;;;4992422;28;20423;-80
2021/06/19 09:40:45;;;;;;;11.70;10.80;;;25.30;40.40;;;;;;5015730;28;20423;-80
2021/06/19 09:43:20;;;;;;;14.00;12.57;;;25.30;40.40;;;;;;5017126;28;20486;-81
2021/06/19 09:46:49;;;;;;;12.50;11.27;;;25.30;40.40;;;;;;5016137;28;20455;-81
2021/06/19 09:49:23;;;;;;;12.37;11.33;;;25.30;40.70;;;;;;4997182;28;20434;-78
2021/06/19 09:51:51;;;;;;;12.60;11.53;;;25.30;40.40;;;;;;5017329;28;20430;-79
2021/06/19 09:54:28;;;;;;;15.40;11.30;;;25.30;40.30;;;;;;5019766;28;20804;-81
2021/06/19 09:57:01;;;;;;;11.87;10.77;;;25.30;40.70;;;;;;5011930;28;20411;-80
2021/06/19 09:59:28;;;;;;;13.83;11.50;;;25.30;40.30;;;;;;5020333;28;20411;-80
2021/06/19 10:01:55;;;;;;;11.07;10.17;;;25.30;40.30;;;;;;5020230;28;20914;-83
2021/06/19 10:04:29;;;;;;;11.90;10.93;;;25.30;40.40;;;;;;5001540;28;20452;-82
2021/06/19 10:07:40;;;;;;;13.10;11.40;;;25.30;40.10;;;;;;5001296;28;20466;-82
2021/06/19 10:10:45;;;;;;;12.50;11.40;;;25.30;40.00;;;;;;4973688;28;20905;-81
2021/06/19 10:13:12;;;;;;;12.67;11.47;;;25.30;40.00;;;;;;4979864;28;20432;-80
2021/06/19 10:15:40;;;;;;;12.47;11.10;;;25.30;39.90;;;;;;4998664;28;20427;-82
2021/06/19 10:18:07;;;;;;;13.30;11.70;;;25.30;39.70;;;;;;5033707;28;20427;-82
2021/06/19 10:20:33;;;;;;;12.10;11.10;;;25.40;39.60;;;;;;5001981;28;20451;-81
2021/06/19 10:22:59;;;;;;;11.97;10.87;;;25.40;39.60;;;;;;5034098;28;20428;-81
2021/06/19 10:25:27;;;;;;;12.23;10.93;;;25.40;39.60;;;;;;5018313;28;20459;-79
2021/06/19 10:27:53;;;;;;;12.27;11.23;;;25.30;39.40;;;;;;5018739;28;20357;-80
2021/06/19 10:30:24;;;;;;;12.67;11.43;;;25.40;39.40;;;;;;5018294;28;20412;-82
2021/06/19 10:32:51;;;;;;;11.70;10.80;;;25.30;39.30;;;;;;5000590;28;20515;-82
2021/06/19 10:35:22;;;;;;;12.80;11.57;;;25.40;39.40;;;;;;5017498;28;20977;-82
2021/06/19 10:37:50;;;;;;;12.80;11.70;;;25.40;39.40;;;;;;5017190;28;20478;-82
2021/06/19 10:40:25;;;;;;;12.77;11.60;;;25.40;39.40;;;;;;5017848;28;20416;-82
2021/06/19 10:42:53;;;;;;;11.90;10.90;;;25.50;39.50;;;;;;4999226;28;20427;-82
2021/06/19 10:45:27;;;;;;;17.73;11.10;;;25.40;39.60;;;;;;4999004;28;20830;-82
2021/06/19 10:48:12;;;;;;;12.43;11.30;;;25.40;39.50;;;;;;4998197;28;20419;-82
2021/06/19 10:50:42;;;;;;;11.63;10.63;;;25.40;39.60;;;;;;5016788;28;20430;-82
2021/06/19 10:53:09;;;;;;;12.63;11.30;;;25.50;39.60;;;;;;5031597;28;20443;-81
2021/06/19 10:55:42;;;;;;;12.10;11.20;;;25.50;39.40;;;;;;4998108;28;20412;-82
2021/06/19 10:58:23;;;;;;;12.17;11.13;;;25.50;39.40;;;;;;5015219;28;20412;-81
2021/06/19 11:00:51;;;;;;;11.80;10.80;;;25.50;39.30;;;;;;5015632;28;20508;-80
2021/06/19 11:03:46;;;;;;;13.90;12.30;;;25.50;39.40;;;;;;5015022;28;20412;-79
2021/06/19 11:06:29;;;;;;;13.17;11.73;;;25.50;39.50;;;;;;4996800;28;20462;-79
2021/06/19 11:09:13;;;;;;;15.60;11.73;;;25.50;39.40;;;;;;5014487;28;20418;-78
2021/06/19 11:11:54;;;;;;;13.73;11.63;;;25.60;39.40;;;;;;4996768;28;20511;-78
2021/06/19 11:14:51;;;;;;;12.00;10.73;;;25.50;39.30;;;;;;4991851;28;20496;-79
2021/06/19 11:24:22;;;;;;;13.20;11.03;;;25.60;38.90;;;;;;4998844;28;20500;-79
2021/06/19 11:27:01;;;;;;;11.10;10.27;;;25.60;39.00;;;;;;4985705;28;20473;-80
2021/06/19 11:29:42;;;;;;;11.37;10.40;;;25.60;39.00;;;;;;5001045;28;20492;-81
2021/06/19 11:32:27;;;;;;;11.60;10.40;;;25.60;39.00;;;;;;4998578;28;20420;-82
2021/06/19 11:34:55;;;;;;;11.50;10.50;;;25.60;38.90;;;;;;5004870;28;20435;-81
2021/06/19 11:37:21;;;;;;;11.63;10.50;;;25.60;38.90;;;;;;5020184;28;20434;-79
2021/06/19 11:43:59;;;;;;;11.70;10.63;;;25.60;39.00;;;;;;5020382;28;20439;-81
2021/06/19 11:46:59;;;;;;;11.20;10.20;;;25.60;39.10;;;;;;5012953;28;20563;-83
2021/06/19 11:52:47;;;;;;;11.13;10.30;;;25.60;39.00;;;;;;5018510;28;20412;-83
2021/06/19 11:55:21;;;;;;;11.87;10.60;;;25.50;38.90;;;;;;5000752;28;20444;-83
2021/06/19 11:57:56;;;;;;;11.93;10.83;;;25.50;38.80;;;;;;4997056;28;20197;-82
2021/06/19 12:00:22;;;;;;;12.10;10.90;;;25.50;39.10;;;;;;5014942;28;20947;-81
2021/06/19 12:02:52;;;;;;;12.57;11.20;;;25.50;39.00;;;;;;4999529;28;20414;-78
2021/06/19 12:05:18;;;;;;;12.33;11.10;;;25.50;39.10;;;;;;5006894;28;20699;-82
2021/06/19 12:07:45;;;;;;;11.80;10.80;;;25.50;39.10;;;;;;5017743;28;20405;-83
2021/06/19 12:10:29;;;;;;;11.60;10.70;;;25.50;39.10;;;;;;4999389;28;20173;-83
2021/06/19 12:13:00;;;;;;;14.07;12.53;;;25.50;39.10;;;;;;4999594;28;20420;-83
2021/06/19 12:15:26;;;;;;;14.47;12.80;;;25.50;39.10;;;;;;5000076;28;20510;-83
2021/06/19 12:17:52;;;;;;;13.03;11.73;;;25.50;39.10;;;;;;5001786;28;20500;-83
2021/06/19 12:20:25;;;;;;;11.83;10.90;;;25.50;39.10;;;;;;5019540;28;20475;-83
2021/06/19 12:22:51;;;;;;;13.17;12.07;;;25.50;39.10;;;;;;5001073;28;20185;-82
2021/06/19 12:25:32;;;;;;;12.40;11.23;;;25.50;39.10;;;;;;5000288;28;20491;-82
2021/06/19 12:27:58;;;;;;;13.43;10.90;;;25.50;39.10;;;;;;5000770;28;20507;-83
2021/06/19 12:30:24;;;;;;;13.20;11.90;;;25.50;39.10;;;;;;4999961;28;20429;-83
2021/06/19 12:32:50;;;;;;;12.90;11.70;;;25.50;39.10;;;;;;5000094;28;20792;-83
2021/06/19 12:35:18;;;;;;;11.97;10.90;;;25.50;39.10;;;;;;5000593;28;20676;-82
2021/06/19 12:38:04;;;;;;;14.43;11.93;;;25.50;39.10;;;;;;5000470;28;20424;-82
2021/06/19 12:40:31;;;;;;;12.03;11.03;;;25.40;39.00;;;;;;5000051;28;20494;-81
2021/06/19 12:42:57;;;;;;;13.03;11.87;;;25.40;39.00;;;;;;5017996;28;20408;-82
2021/06/19 12:45:34;;;;;;;13.10;11.77;;;25.50;39.10;;;;;;5017610;28;20464;-83
2021/06/19 12:48:01;;;;;;;14.00;11.83;;;25.50;39.10;;;;;;5017875;28;20169;-83
2021/06/19 12:50:32;;;;;;;13.53;11.33;;;25.40;39.00;;;;;;5017771;28;20416;-82
2021/06/19 12:53:13;;;;;;;12.67;11.47;;;25.40;39.00;;;;;;5000496;28;20497;-82
2021/06/19 12:55:58;;;;;;;12.20;11.10;;;25.40;39.00;;;;;;5017695;28;20412;-82
2021/06/19 12:58:39;;;;;;;11.57;10.70;;;25.40;39.00;;;;;;5000536;28;20446;-81
2021/06/19 13:01:34;;;;;;;12.67;11.47;;;25.40;39.00;;;;;;5018264;28;20571;-83
2021/06/19 13:04:02;;;;;;;15.47;11.87;;;25.40;39.00;;;;;;4987660;28;21171;-83
2021/06/19 13:06:41;;;;;;;12.03;11.03;;;25.40;39.00;;;;;;5017050;28;20474;-82
2021/06/19 13:09:12;;;;;;;12.10;11.10;;;25.40;38.90;;;;;;4993479;28;20499;-83
2021/06/19 13:11:40;;;;;;;12.80;11.53;;;25.40;39.00;;;;;;5017405;28;20455;-83
2021/06/19 13:14:13;;;;;;;12.37;11.27;;;25.30;38.90;;;;;;5017411;28;20460;-82
2021/06/19 13:16:40;;;;;;;11.63;10.70;;;25.30;38.90;;;;;;5017844;28;20452;-82
2021/06/19 13:19:08;;;;;;;12.13;10.53;;;25.30;38.90;;;;;;5017214;28;20463;-83
2021/06/19 13:21:38;;;;;;;11.63;10.67;;;25.30;38.80;;;;;;5000309;28;20463;-83